Acton, Indiana
Current Conditions -  °F | °C
As of 7:03 AM on Thursday 23 Oct 2014 (Local Time) from KGEZ Reporting Station
Haze Haze  
Wind Chill: 29°   Ceiling: Unl
Heat Index: 33°   Visibility: 1.7mi
Dew Point: 32°   Wind: 5mph
Humidity: 96%   Direction: 90°E
Pressure: 30.26"   Gusts: NA
Location:  39.6613°N, 85.9949°W
Report Text: KGEZ 231103Z AUTO 09004KT 1 3/4SM BR CLR 01/00 A3026 RMK AO2 I1000 T00060000
Loading
Personal Weather Stations






























Interactive Weather Map
Tropical Storm Tracking
New forecast layout! Learn more

10-Day Weather Forecast

Advertisements
Track Severe Weather on mobile